»·PEaware :: N1422E KSNA-KVNY

N1422E :: KSNA-KVNY

FLIGHT INFORMATION

Flight Status: Arrived
Operator: Privately registered:
United States
More flights under this callsign
Pilot: Jonathan B. (787)
Aircraft: BEECH AIRCRAFT BONANZA
(BE36)
More flights by this aircraft type
Origin: KSNA John Wayne-Orange Co
United States
Destination: KVNY Van Nuys
United States
More flights between these airports :: More routes between these airports
Route: SLI V23 POPPR SMO125 SMO SMO317 CANOG
File this flight plan on PilotEdge
Remarks:
Altitude:
(Current/Filed)
4,000ft
Speed:
(Current/Filed)
160kts
Departed: 14-Jun-15 01:24 PM
Arrived: 14-Jun-15 02:00 PM
Distance/Time
Traveled:
45nm/0:36
Distance/Time
To Go:
Arrived

Flight Plot

Page will automatically refresh every two minutes.


Map Options




Map Legend


Flown Route
Filed Route
Departure Airport
Arrival Airport
Navaid (VOR, NDB)
Fix

Horizontal Profiles

Position Reports

Time Latitude Longitude Heading Altitude Ground
Speed
14-Jun-15 12:54 33.676212 -117.871056 219 59ft 0kts
14-Jun-15 12:55 33.676212 -117.871056 219 59ft 0kts
14-Jun-15 12:56 33.676212 -117.871056 219 59ft 0kts
14-Jun-15 12:57 33.676212 -117.871056 219 59ft 0kts
14-Jun-15 12:58 33.676212 -117.871056 219 59ft 0kts
14-Jun-15 12:59 33.676212 -117.871056 219 59ft 0kts
14-Jun-15 13:00 33.676212 -117.871056 219 59ft 0kts
14-Jun-15 13:01 33.676212 -117.871056 219 59ft 0kts
14-Jun-15 13:02 33.676212 -117.871056 219 59ft 0kts
14-Jun-15 13:03 33.676212 -117.871056 219 59ft 0kts
14-Jun-15 13:04 33.676212 -117.871056 219 59ft 0kts
14-Jun-15 13:05 33.676212 -117.871056 219 59ft 0kts
14-Jun-15 13:06 33.676212 -117.871056 219 59ft 0kts
14-Jun-15 13:07 33.676212 -117.871056 219 59ft 0kts
14-Jun-15 13:08 33.676212 -117.871056 219 59ft 0kts
14-Jun-15 13:09 33.676212 -117.871056 219 59ft 0kts
14-Jun-15 13:10 33.676212 -117.871056 219 59ft 0kts
14-Jun-15 13:11 33.676212 -117.871056 219 59ft 0kts
14-Jun-15 13:12 33.676212 -117.871056 219 59ft 0kts
14-Jun-15 13:13 33.676212 -117.871056 219 59ft 0kts
14-Jun-15 13:14 33.676212 -117.871056 219 59ft 0kts
14-Jun-15 13:15 33.676158 -117.871081 184 59ft 3kts
14-Jun-15 13:16 33.678800 -117.868433 27 60ft 27kts
14-Jun-15 13:17 33.681227 -117.866493 124 59ft 0kts
14-Jun-15 13:18 33.681227 -117.866493 124 59ft 0kts
14-Jun-15 13:19 33.671233 -117.871189 209 166ft 64kts
14-Jun-15 13:20 33.658116 -117.890343 236 728ft 71kts
14-Jun-15 13:21 33.646190 -117.911077 235 1529ft 85kts
14-Jun-15 13:22 33.632030 -117.934375 235 2625ft 87kts
14-Jun-15 13:23 33.629343 -117.958895 304 3685ft 85kts
14-Jun-15 13:24 33.646950 -117.989387 305 4022ft 149kts
14-Jun-15 13:25 33.671830 -118.032233 304 4010ft 171kts
14-Jun-15 13:26 33.699212 -118.078589 305 4009ft 170kts
14-Jun-15 13:27 33.726015 -118.123268 304 4012ft 170kts
14-Jun-15 13:28 33.750843 -118.164829 304 4016ft 169kts
14-Jun-15 13:29 33.776448 -118.207858 304 4019ft 168kts
14-Jun-15 13:30 33.804053 -118.247525 304 4019ft 167kts
14-Jun-15 13:31 33.832894 -118.278560 319 4019ft 167kts
14-Jun-15 13:32 33.864431 -118.309641 319 4021ft 166kts
14-Jun-15 13:33 33.897636 -118.342862 320 4035ft 165kts
14-Jun-15 13:34 33.931916 -118.377224 320 4038ft 166kts
14-Jun-15 13:35 33.967505 -118.412941 320 4037ft 168kts
14-Jun-15 13:36 34.002385 -118.447907 320 4037ft 170kts
14-Jun-15 13:37 34.042966 -118.477493 332 4036ft 171kts
14-Jun-15 13:38 34.085257 -118.504499 332 4037ft 172kts
14-Jun-15 13:39 34.127689 -118.531659 335 4035ft 172kts
14-Jun-15 13:40 34.173264 -118.538057 355 4487ft 156kts
14-Jun-15 13:41 34.215880 -118.544617 344 5005ft 155kts
14-Jun-15 13:42 34.260047 -118.559462 344 5030ft 171kts
14-Jun-15 13:43 34.306374 -118.575017 344 5030ft 173kts
14-Jun-15 13:44 34.351506 -118.590605 344 5027ft 156kts
14-Jun-15 13:45 34.391919 -118.601599 17 5027ft 146kts
14-Jun-15 13:46 34.397719 -118.559097 86 5022ft 138kts
14-Jun-15 13:47 34.407404 -118.514571 74 5029ft 136kts
14-Jun-15 13:48 34.387562 -118.482539 173 5072ft 128kts
14-Jun-15 13:49 34.353283 -118.496842 200 4611ft 151kts
14-Jun-15 13:50 34.318871 -118.501745 168 3419ft 101kts
14-Jun-15 13:51 34.290496 -118.498151 175 2857ft 107kts
14-Jun-15 13:52 34.262522 -118.495481 175 2136ft 105kts
14-Jun-15 13:53 34.234166 -118.492653 177 1310ft 99kts
14-Jun-15 13:54 34.209850 -118.490486 183 805ft 48kts
14-Jun-15 13:55 34.207675 -118.491266 190 805ft 17kts

Navigation Log

Ident Type
Flight plan parsing failed, navigation log unavailable